Terminal Aerodrome Forecast
Issued by NWS Omaha/Valley, NE

Home | Current Version | Previous Version | Graphics & Text | Print | Product List | Glossary On
Versions: 1 2 3 4 5 6 7 8 9 10 11 12 13 14 15 16 17 18 19 20 21 22 23 24
000
FTUS43 KOAX 202325
TAFOFK
TAF
KOFK 202325Z 2100/2124 07009KT P6SM SCT120
     FM210600 13007KT P6SM VCTS SCT100CB
     FM210900 16007KT P6SM BKN150 WS020/21040KT
     FM211300 18009KT P6SM SCT200=

USA.gov is the U.S. government's official web portal to all federal, state and local government web resources and services.